Cannon Air Force Base
KCVS : now visible

Airfield :











YOU CAN JOIN US ON...

 
LOGIN :

Register | Disclaimer

   EN    FR    IT 

 









Legend :    VFR   Marginal VFR   IFR   Intensive IFR   Very Intensive IFR
Visi :
Ceiling :
>= 8 km
>= 3000ft
5 to 8 km
1000 to 3000 ft
1500m to 5 km
500 to 1000 ft
800 to 1500m
200 to 500 ft
< 800m
< 200 ft
Symbols :   Thunderstorms  Fog  Heavy snow  Heavy precipitations  Wind > 20 kt






- Airport Elevation : 4295 ft


KCVS - Cannon Air Force Base

CURRENT METAR :
  • 192358Z AUTO 17014KT 7SM CLR 26/03 A3017 RMK AO2 SLP170 T02550028 10275 20229 56008 $

EXPIRED METARs :
  • 192258Z AUTO 16011KT 7SM CLR 27/03 A3017 RMK AO2 SLP167 T02660025 $
  • 192158Z AUTO 17013KT 7SM CLR 27/01 A3018 RMK AO2 SLP170 T02700006 $

TAF TAF KCVS
Valid from the 19 at 18:00 until the 21 at 00:00 UTC


191800Z 1918/2024 18010G15KT 9999 SCT200 QNH3017INS
BECMG 1922/1923 17008KT 9999 FEW200 QNH3015INS
BECMG 2016/2017 19012KT 9999 FEW150 QNH3014INS TX27/1921Z TN12/2012Z LAST NO AMDS AFT 1918 NEXT 2018
KZAB FIR / North America



MET'MAP, your aeronautical weather chart ! - Copyright ORBIFLY December 2007 - Disclaimer

ORBIFLY MET'MAP TEAM :

Programming & Development : Alexandra Zaïnal
Concept & original design : Baudouin d'Aumeries
Assistance for programming : Marc-Olivier Méhu
Technical & hardware support : Manuel Goepfert

Contact : metmap@orbifly.com




SOURCES & CREDITS :

   NOAA       Earth
Advisory